Terminal Aerodrome Forecast
Issued by NWS

Home | Current Version | Previous Version | Text Only | Print | Product List | Glossary On
Versions: 1 2 3 4 5 6 7 8 9 10 11 12 13 14 15 16 17 18
000
FTUS45 KRIW 181100
TAFCPR
TAF
KCPR 181131Z 1812/1912 23014G20KT P6SM BKN200
     FM181500 23025G35KT P6SM FEW120 BKN200
     FM182200 25020G30KT P6SM FEW110 BKN200
     FM190200 26015G25KT P6SM SCT100 BKN150
     FM190900 35011KT P6SM FEW030 SCT250=

USA.gov is the U.S. government's official web portal to all federal, state and local government web resources and services.